createdAt,value
2018-07-26T00:00:17.693Z,57.30
2018-07-26T00:02:46.676Z,59.00
2018-07-26T00:05:15.711Z,61.10
2018-07-26T00:07:44.811Z,59.90
2018-07-26T00:10:13.858Z,58.70
2018-07-26T00:12:42.809Z,58.10
2018-07-26T00:15:11.853Z,59.70
2018-07-26T00:17:40.889Z,61.70
2018-07-26T00:20:09.946Z,59.00
2018-07-26T00:22:38.905Z,59.00
2018-07-26T00:25:07.926Z,60.20
2018-07-26T00:27:36.929Z,58.80
2018-07-26T00:30:06.011Z,62.10
2018-07-26T00:32:34.993Z,60.30
2018-07-26T00:35:04.617Z,59.00
2018-07-26T00:37:33.577Z,59.20
2018-07-26T00:40:02.604Z,59.60
2018-07-26T00:42:31.743Z,60.50
2018-07-26T00:45:00.735Z,59.40
2018-07-26T00:47:29.829Z,60.50
2018-07-26T00:49:58.873Z,60.40
2018-07-26T00:52:27.879Z,59.90
2018-07-26T00:54:56.973Z,59.80
2018-07-26T00:57:25.972Z,61.50
2018-07-26T00:59:54.965Z,61.30
2018-07-26T01:02:24.101Z,60.90
2018-07-26T01:04:53.053Z,62.90
2018-07-26T01:07:22.061Z,62.90
2018-07-26T01:09:51.078Z,62.70
2018-07-26T01:12:20.044Z,60.70
2018-07-26T01:14:49.032Z,60.50
2018-07-26T01:17:18.365Z,60.30
2018-07-26T01:19:47.352Z,62.20
2018-07-26T01:22:16.376Z,61.30
2018-07-26T01:24:45.824Z,62.60
2018-07-26T01:27:14.805Z,61.50
2018-07-26T01:29:43.844Z,63.10
2018-07-26T01:32:12.904Z,61.20
2018-07-26T01:34:41.880Z,62.40
2018-07-26T01:37:10.928Z,61.10
2018-07-26T01:39:39.948Z,62.10
2018-07-26T01:42:08.944Z,62.50
2018-07-26T01:44:37.974Z,60.40
2018-07-26T01:47:07.110Z,62.30
2018-07-26T01:49:36.162Z,63.20
2018-07-26T01:52:05.154Z,61.30
2018-07-26T01:54:34.148Z,62.30
2018-07-26T01:57:03.143Z,62.80
2018-07-26T01:59:32.278Z,64.10
2018-07-26T02:02:01.294Z,64.00
2018-07-26T02:04:30.281Z,66.50
2018-07-26T02:06:59.256Z,63.90
2018-07-26T02:09:28.285Z,63.80
2018-07-26T02:11:57.246Z,63.50
2018-07-26T02:14:31.677Z,63.40
2018-07-26T02:17:00.651Z,63.30
2018-07-26T02:19:30.181Z,65.70
2018-07-26T02:21:59.228Z,65.10
2018-07-26T02:24:28.289Z,63.70
2018-07-26T02:26:57.312Z,64.00
2018-07-26T02:29:26.380Z,63.70
2018-07-26T02:31:55.424Z,64.50
2018-07-26T02:34:24.421Z,64.60
2018-07-26T02:36:53.562Z,64.60
2018-07-26T02:39:22.526Z,63.90
2018-07-26T02:41:51.632Z,63.30
2018-07-26T02:44:20.639Z,62.90
2018-07-26T02:46:50.372Z,63.30
2018-07-26T02:49:19.372Z,62.80
2018-07-26T02:51:48.447Z,63.70
2018-07-26T02:54:17.460Z,65.00
2018-07-26T02:56:46.461Z,63.50
2018-07-26T02:59:15.470Z,64.00
2018-07-26T03:01:44.529Z,63.00
2018-07-26T03:04:13.510Z,65.00
2018-07-26T03:06:42.494Z,63.70
2018-07-26T03:09:11.525Z,64.60
2018-07-26T03:11:40.521Z,66.60
2018-07-26T03:14:09.506Z,68.10
2018-07-26T03:16:38.499Z,65.80
2018-07-26T03:19:07.522Z,64.80
2018-07-26T03:21:36.541Z,65.10
2018-07-26T03:24:05.558Z,66.10
2018-07-26T03:26:34.551Z,68.00
2018-07-26T03:29:03.584Z,67.00
2018-07-26T03:34:01.446Z,65.20
2018-07-26T03:36:30.445Z,66.60
2018-07-26T03:38:59.497Z,66.90
2018-07-26T03:41:28.573Z,66.20
2018-07-26T03:43:57.533Z,65.10
2018-07-26T03:46:26.545Z,65.40
2018-07-26T03:48:55.557Z,65.40
2018-07-26T03:51:24.656Z,65.20
2018-07-26T03:53:53.664Z,65.40
2018-07-26T03:56:22.621Z,67.60
2018-07-26T03:58:51.968Z,65.60
2018-07-26T04:01:21.139Z,65.80
2018-07-26T04:03:50.114Z,65.20
2018-07-26T04:06:19.133Z,66.40
2018-07-26T04:08:48.105Z,66.80
2018-07-26T04:11:17.281Z,65.60
2018-07-26T04:13:46.413Z,65.60
2018-07-26T04:16:15.429Z,65.70
2018-07-26T04:18:44.441Z,65.60
2018-07-26T04:21:13.505Z,65.20
2018-07-26T04:23:42.761Z,66.10
2018-07-26T04:28:40.509Z,65.90
2018-07-26T04:31:09.611Z,66.10
2018-07-26T04:33:38.889Z,66.60
2018-07-26T04:36:07.921Z,66.40
2018-07-26T04:38:36.877Z,65.90
2018-07-26T04:41:05.889Z,66.30
2018-07-26T04:43:34.885Z,66.60
2018-07-26T04:46:04.341Z,67.20
2018-07-26T04:48:33.590Z,67.20
2018-07-26T04:51:02.746Z,69.00
2018-07-26T04:53:31.739Z,67.20
2018-07-26T04:56:00.809Z,67.10
2018-07-26T04:58:30.369Z,67.10
2018-07-26T05:00:59.451Z,66.70
2018-07-26T05:03:28.537Z,67.10
2018-07-26T05:05:57.593Z,67.70
2018-07-26T05:08:26.725Z,67.80
2018-07-26T05:10:55.863Z,67.20
2018-07-26T05:13:25.005Z,67.40
2018-07-26T05:15:54.045Z,66.90
2018-07-26T05:18:23.056Z,67.10
2018-07-26T05:20:52.209Z,67.80
2018-07-26T05:23:21.401Z,67.10
2018-07-26T05:25:50.397Z,67.50
2018-07-26T05:28:19.419Z,69.20
2018-07-26T05:30:48.583Z,68.60
2018-07-26T05:33:17.575Z,68.30
2018-07-26T05:35:46.621Z,67.40
2018-07-26T05:38:15.702Z,67.60
2018-07-26T05:40:44.705Z,67.50
2018-07-26T05:43:13.768Z,67.30
2018-07-26T05:45:42.853Z,68.50
2018-07-26T05:48:11.877Z,67.70
2018-07-26T05:50:40.849Z,67.70
2018-07-26T05:53:09.867Z,68.00
2018-07-26T05:55:38.845Z,68.70
2018-07-26T05:58:07.821Z,68.10
2018-07-26T06:00:36.877Z,68.10
2018-07-26T06:03:06.143Z,69.20
2018-07-26T06:05:35.151Z,68.50
2018-07-26T06:08:04.142Z,69.50
2018-07-26T06:10:33.182Z,69.30
2018-07-26T06:13:02.193Z,68.40
2018-07-26T06:15:31.184Z,68.90
2018-07-26T06:18:00.145Z,68.50
2018-07-26T06:20:29.207Z,68.90
2018-07-26T06:22:58.364Z,68.50
2018-07-26T06:25:27.342Z,69.10
2018-07-26T06:27:56.413Z,69.10
2018-07-26T06:30:25.424Z,68.50
2018-07-26T06:32:54.493Z,68.30
2018-07-26T06:35:23.463Z,67.90
2018-07-26T06:37:52.446Z,68.20
2018-07-26T06:40:21.464Z,68.00
2018-07-26T06:42:50.472Z,69.10
2018-07-26T06:45:19.468Z,68.40
2018-07-26T06:50:17.128Z,67.70
2018-07-26T06:52:46.148Z,67.60
2018-07-26T07:00:12.446Z,67.60
2018-07-26T07:02:41.525Z,67.70
2018-07-26T07:05:10.905Z,67.20
2018-07-26T07:07:40.106Z,67.20
2018-07-26T07:10:09.100Z,67.20
2018-07-26T07:12:38.132Z,67.70
2018-07-26T07:15:07.131Z,67.10
2018-07-26T07:17:36.108Z,67.10
2018-07-26T07:20:05.916Z,67.10
2018-07-26T07:22:34.935Z,67.00
2018-07-26T07:25:03.986Z,66.90
2018-07-26T07:27:32.934Z,66.60
2018-07-26T07:30:01.951Z,66.50
2018-07-26T07:32:30.971Z,66.40
2018-07-26T07:35:00.012Z,66.20
2018-07-26T07:37:28.972Z,66.10
2018-07-26T07:39:57.934Z,66.00
2018-07-26T07:42:26.940Z,65.80
2018-07-26T07:44:55.935Z,65.00
2018-07-26T07:47:25.111Z,65.50
2018-07-26T07:49:54.100Z,65.50
2018-07-26T07:52:23.114Z,65.40
2018-07-26T07:54:52.146Z,65.40
2018-07-26T07:57:21.108Z,65.20
2018-07-26T07:59:50.102Z,64.90
2018-07-26T08:02:19.101Z,64.70
2018-07-26T08:04:48.115Z,65.00
2018-07-26T08:07:17.115Z,64.70
2018-07-26T08:09:46.083Z,64.50
2018-07-26T08:12:15.061Z,64.40
2018-07-26T08:14:44.062Z,64.60
2018-07-26T08:17:13.127Z,64.20
2018-07-26T08:19:42.121Z,63.50
2018-07-26T08:22:11.148Z,63.60
2018-07-26T08:24:40.167Z,63.70
2018-07-26T08:27:09.211Z,63.10
2018-07-26T08:32:07.349Z,61.80
2018-07-26T08:34:36.339Z,63.00
2018-07-26T08:37:05.604Z,63.00
2018-07-26T08:39:34.892Z,62.50
2018-07-26T08:42:03.888Z,62.90
2018-07-26T08:44:32.988Z,63.10
2018-07-26T08:47:01.961Z,63.10
2018-07-26T08:49:31.001Z,63.10
2018-07-26T08:54:28.652Z,62.40
2018-07-26T08:56:57.654Z,61.20
2018-07-26T08:59:26.646Z,60.30
2018-07-26T09:01:55.633Z,61.20
2018-07-26T09:04:24.759Z,61.60
2018-07-26T09:06:53.724Z,61.20
2018-07-26T09:09:22.662Z,61.70
2018-07-26T09:11:51.651Z,61.50
2018-07-26T09:14:20.676Z,61.20
2018-07-26T09:16:49.646Z,60.50
2018-07-26T09:19:18.660Z,60.10
2018-07-26T09:21:47.681Z,60.70
2018-07-26T09:24:16.696Z,59.30
2018-07-26T09:26:45.693Z,59.60
2018-07-26T09:29:14.784Z,58.00
2018-07-26T09:31:43.782Z,59.00
2018-07-26T09:34:12.825Z,56.80
2018-07-26T09:36:41.818Z,57.80
2018-07-26T09:39:15.912Z,58.10
2018-07-26T09:41:45.098Z,58.60
2018-07-26T09:44:14.134Z,56.70
2018-07-26T09:46:43.124Z,57.50
2018-07-26T09:49:12.110Z,58.30
2018-07-26T09:51:41.164Z,58.60
2018-07-26T09:54:10.166Z,58.10
2018-07-26T09:56:39.145Z,56.80
2018-07-26T09:59:08.172Z,54.30
2018-07-26T10:01:38.363Z,54.70
2018-07-26T10:04:07.321Z,55.50
2018-07-26T10:06:36.361Z,56.10
2018-07-26T10:09:08.734Z,56.50
2018-07-26T10:11:37.799Z,55.50
2018-07-26T10:14:06.792Z,55.70
2018-07-26T10:16:35.788Z,55.40
2018-07-26T10:19:04.806Z,54.10
2018-07-26T10:21:33.830Z,55.20
2018-07-26T10:24:02.831Z,55.70
2018-07-26T10:26:31.856Z,54.80
2018-07-26T10:29:00.829Z,55.60
2018-07-26T10:31:29.867Z,55.80
2018-07-26T10:33:59.468Z,55.60
2018-07-26T10:36:28.562Z,55.10
2018-07-26T10:38:57.670Z,55.50
2018-07-26T10:41:26.734Z,55.40
2018-07-26T10:43:55.762Z,54.90
2018-07-26T10:46:25.155Z,54.60
2018-07-26T10:48:54.196Z,55.20
2018-07-26T10:51:23.181Z,53.50
2018-07-26T10:53:52.128Z,53.70
2018-07-26T10:56:21.774Z,53.90
2018-07-26T10:58:50.785Z,54.40
2018-07-26T11:01:19.773Z,54.10
2018-07-26T11:03:48.812Z,54.30
2018-07-26T11:06:17.811Z,54.80
2018-07-26T11:08:46.873Z,51.80
2018-07-26T11:11:16.030Z,52.00
2018-07-26T11:13:45.050Z,52.00
2018-07-26T11:16:14.116Z,53.00
2018-07-26T11:18:43.122Z,53.70
2018-07-26T11:21:12.158Z,53.80
2018-07-26T11:23:41.179Z,49.60
2018-07-26T11:28:38.781Z,52.00
2018-07-26T11:31:07.801Z,50.90
2018-07-26T11:33:36.813Z,51.70
2018-07-26T11:36:05.858Z,48.30
2018-07-26T11:38:34.798Z,48.40
2018-07-26T11:41:03.855Z,46.10
2018-07-26T11:43:32.896Z,51.20
2018-07-26T11:46:01.894Z,51.30
2018-07-26T11:48:30.969Z,49.80
2018-07-26T11:50:59.957Z,49.30
2018-07-26T11:53:29.088Z,47.90
2018-07-26T11:55:58.077Z,45.80
2018-07-26T11:58:27.078Z,48.70
2018-07-26T12:00:56.079Z,48.60
2018-07-26T12:03:25.295Z,48.70
2018-07-26T12:05:54.293Z,43.90
2018-07-26T12:08:23.251Z,41.50
2018-07-26T12:10:52.250Z,40.90
2018-07-26T12:13:21.355Z,43.10
2018-07-26T12:15:50.368Z,46.50
2018-07-26T12:18:19.397Z,46.20
2018-07-26T12:20:48.555Z,43.10
2018-07-26T12:23:17.589Z,45.50
2018-07-26T12:25:47.466Z,43.90
2018-07-26T12:28:16.706Z,45.90
2018-07-26T12:30:45.722Z,42.70
2018-07-26T12:35:43.485Z,46.70
2018-07-26T12:38:12.474Z,42.50
2018-07-26T12:40:48.146Z,44.80
2018-07-26T12:43:17.377Z,44.80
2018-07-26T12:45:46.350Z,41.50
2018-07-26T12:50:44.017Z,43.10
2018-07-26T12:55:41.627Z,43.80
2018-07-26T12:58:10.728Z,41.10
2018-07-26T13:00:39.767Z,41.50
2018-07-26T13:03:08.860Z,41.20
2018-07-26T13:05:37.831Z,40.60
2018-07-26T13:08:06.846Z,40.30
2018-07-26T13:10:35.819Z,41.70
2018-07-26T13:13:04.853Z,42.80
2018-07-26T13:18:02.701Z,41.60
2018-07-26T13:20:31.721Z,41.60
2018-07-26T13:23:00.702Z,41.90
2018-07-26T13:25:29.956Z,40.80
2018-07-26T13:27:59.028Z,41.20
2018-07-26T13:30:28.066Z,41.20
2018-07-26T13:32:57.058Z,41.20
2018-07-26T13:35:26.330Z,39.70
2018-07-26T13:37:55.412Z,41.60
2018-07-26T13:40:24.392Z,39.50
2018-07-26T13:42:53.391Z,36.40
2018-07-26T13:45:22.430Z,36.20
2018-07-26T13:47:51.433Z,36.20
2018-07-26T13:50:21.161Z,39.80
2018-07-26T13:52:50.333Z,39.40
2018-07-26T13:55:19.354Z,34.60
2018-07-26T13:57:48.400Z,38.00
2018-07-26T14:00:17.413Z,39.30
2018-07-26T14:02:46.411Z,39.70
2018-07-26T14:05:15.428Z,39.40
2018-07-26T14:07:44.440Z,39.90
2018-07-26T14:10:13.434Z,39.30
2018-07-26T14:12:42.514Z,39.60
2018-07-26T14:15:11.772Z,39.80
2018-07-26T14:17:40.787Z,40.30
2018-07-26T14:20:11.327Z,40.60
2018-07-26T14:22:40.789Z,37.70
2018-07-26T14:25:09.785Z,36.30
2018-07-26T14:27:38.855Z,40.30
2018-07-26T14:30:08.375Z,40.20
2018-07-26T14:32:37.350Z,39.80
2018-07-26T14:37:35.164Z,39.60
2018-07-26T14:40:04.949Z,37.70
2018-07-26T14:42:33.985Z,38.00
2018-07-26T14:45:02.990Z,35.40
2018-07-26T14:47:32.017Z,36.20
2018-07-26T14:52:29.675Z,35.60
2018-07-26T14:54:58.687Z,36.90
2018-07-26T14:57:27.740Z,35.70
2018-07-26T14:59:56.823Z,34.80
2018-07-26T15:02:25.921Z,36.50
2018-07-26T15:04:54.969Z,37.20
2018-07-26T15:07:23.989Z,36.10
2018-07-26T15:09:53.023Z,37.70
2018-07-26T15:12:21.997Z,37.40
2018-07-26T15:14:51.543Z,37.40
2018-07-26T15:17:20.757Z,35.30
2018-07-26T15:19:49.873Z,36.10
2018-07-26T15:22:18.889Z,37.00
2018-07-26T15:24:47.848Z,37.10
2018-07-26T15:29:45.495Z,38.10
2018-07-26T15:32:14.742Z,36.60
2018-07-26T15:34:43.719Z,37.00
2018-07-26T15:39:41.372Z,38.00
2018-07-26T15:42:10.413Z,38.50
2018-07-26T15:44:39.481Z,39.70
2018-07-26T15:47:08.475Z,40.10
2018-07-26T15:49:37.543Z,40.50
2018-07-26T15:52:06.528Z,40.80
2018-07-26T15:54:35.531Z,41.70
2018-07-26T15:57:04.703Z,41.90
2018-07-26T15:59:33.914Z,42.40
2018-07-26T16:02:02.988Z,42.30
2018-07-26T16:04:31.941Z,43.00
2018-07-26T16:07:00.947Z,44.00
2018-07-26T16:09:30.021Z,44.00
2018-07-26T16:11:59.059Z,43.70
2018-07-26T16:14:28.098Z,43.70
2018-07-26T16:16:57.109Z,44.50
2018-07-26T16:19:26.112Z,44.50
2018-07-26T16:21:55.183Z,44.90
2018-07-26T16:24:24.858Z,45.10
2018-07-26T16:26:53.945Z,44.80
2018-07-26T16:29:23.040Z,44.40
2018-07-26T16:31:52.099Z,44.40
2018-07-26T16:36:50.258Z,43.80
2018-07-26T16:39:19.340Z,44.30
2018-07-26T16:41:48.298Z,44.40
2018-07-26T16:44:17.366Z,43.90
2018-07-26T16:46:46.368Z,44.00
2018-07-26T16:49:15.492Z,44.10
2018-07-26T16:51:44.468Z,44.10
2018-07-26T16:54:13.516Z,44.10
2018-07-26T16:56:42.536Z,44.20
2018-07-26T16:59:11.676Z,44.10
2018-07-26T17:01:40.688Z,44.80
2018-07-26T17:04:09.766Z,44.10
2018-07-26T17:06:38.862Z,44.20
2018-07-26T17:09:09.925Z,44.30
2018-07-26T17:11:38.936Z,44.30
2018-07-26T17:14:07.912Z,44.30
2018-07-26T17:16:36.984Z,44.30
2018-07-26T17:19:06.133Z,44.10
2018-07-26T17:21:35.132Z,44.30
2018-07-26T17:24:04.156Z,44.30
2018-07-26T17:26:33.140Z,44.50
2018-07-26T17:31:31.071Z,44.50
2018-07-26T17:34:00.096Z,44.60
2018-07-26T17:36:29.111Z,44.80
2018-07-26T17:38:58.194Z,44.80
2018-07-26T17:41:27.237Z,44.80
2018-07-26T17:44:02.997Z,44.70
2018-07-26T17:46:32.042Z,45.50
2018-07-26T17:49:01.021Z,45.30
2018-07-26T17:51:30.345Z,46.30
2018-07-26T17:53:59.360Z,45.40
2018-07-26T17:56:28.971Z,45.30
2018-07-26T17:58:58.057Z,45.30
2018-07-26T18:01:27.041Z,45.50
2018-07-26T18:03:56.022Z,45.50
2018-07-26T18:06:25.349Z,45.70
2018-07-26T18:08:54.409Z,46.00
2018-07-26T18:11:23.511Z,45.90
2018-07-26T18:16:21.308Z,46.30
2018-07-26T18:18:50.417Z,46.20
2018-07-26T18:21:19.741Z,46.20
2018-07-26T18:23:48.828Z,46.10
2018-07-26T18:26:17.825Z,45.90
2018-07-26T18:28:46.757Z,45.90
2018-07-26T18:31:15.860Z,45.70
2018-07-26T18:33:44.971Z,45.70
2018-07-26T18:36:14.107Z,45.70
2018-07-26T18:38:43.221Z,45.70
2018-07-26T18:41:12.229Z,45.70
2018-07-26T18:43:41.284Z,45.90
2018-07-26T18:46:10.263Z,45.90
2018-07-26T18:48:39.410Z,46.10
2018-07-26T18:51:08.381Z,46.10
2018-07-26T18:53:37.349Z,46.20
2018-07-26T18:56:06.423Z,47.20
2018-07-26T18:58:35.392Z,47.20
2018-07-26T19:01:04.436Z,47.20
2018-07-26T19:03:33.528Z,46.70
2018-07-26T19:06:02.567Z,46.70
2018-07-26T19:08:31.612Z,46.50
2018-07-26T19:11:00.654Z,46.40
2018-07-26T19:13:29.618Z,46.70
2018-07-26T19:15:58.578Z,47.50
2018-07-26T19:18:27.620Z,46.60
2018-07-26T19:20:56.666Z,46.50
2018-07-26T19:23:25.760Z,46.40
2018-07-26T19:25:54.830Z,46.60
2018-07-26T19:28:24.085Z,46.60
2018-07-26T19:30:53.112Z,46.70
2018-07-26T19:33:22.120Z,46.80
2018-07-26T19:35:51.121Z,46.70
2018-07-26T19:38:20.244Z,47.00
2018-07-26T19:40:49.282Z,46.70
2018-07-26T19:43:18.248Z,46.80
2018-07-26T19:45:47.274Z,47.10
2018-07-26T19:48:16.301Z,47.30
2018-07-26T19:53:14.032Z,47.50
2018-07-26T19:55:43.078Z,47.20
2018-07-26T19:58:12.202Z,47.50
2018-07-26T20:00:41.150Z,47.40
2018-07-26T20:03:10.170Z,47.60
2018-07-26T20:05:39.258Z,47.80
2018-07-26T20:10:37.146Z,47.80
2018-07-26T20:13:06.264Z,48.10
2018-07-26T20:15:35.246Z,47.90
2018-07-26T20:18:04.408Z,48.00
2018-07-26T20:20:33.404Z,48.90
2018-07-26T20:23:02.428Z,49.00
2018-07-26T20:25:31.390Z,49.10
2018-07-26T20:28:00.413Z,49.10
2018-07-26T20:30:29.443Z,48.90
2018-07-26T20:32:58.501Z,48.90
2018-07-26T20:35:27.433Z,49.20
2018-07-26T20:37:56.400Z,49.10
2018-07-26T20:40:25.373Z,49.40
2018-07-26T20:42:54.389Z,48.90
2018-07-26T20:45:23.398Z,49.60
2018-07-26T20:47:52.428Z,49.30
2018-07-26T20:50:21.427Z,49.20
2018-07-26T20:52:50.435Z,49.30
2018-07-26T20:55:19.434Z,49.10
2018-07-26T20:57:48.417Z,49.10
2018-07-26T21:00:17.474Z,49.60
2018-07-26T21:02:47.460Z,49.70
2018-07-26T21:05:16.429Z,49.30
2018-07-26T21:07:45.393Z,50.00
2018-07-26T21:10:14.446Z,50.00
2018-07-26T21:12:43.453Z,50.00
2018-07-26T21:15:12.429Z,50.00
2018-07-26T21:17:41.442Z,49.60
2018-07-26T21:20:10.517Z,49.50
2018-07-26T21:22:39.549Z,49.50
2018-07-26T21:25:08.581Z,49.60
2018-07-26T21:27:37.570Z,49.70
2018-07-26T21:30:07.272Z,50.20
2018-07-26T21:32:36.501Z,50.10
2018-07-26T21:35:06.649Z,50.20
2018-07-26T21:37:35.726Z,50.40
2018-07-26T21:40:05.973Z,50.40
2018-07-26T21:42:35.169Z,50.80
2018-07-26T21:45:04.583Z,51.40
2018-07-26T21:47:33.573Z,52.30
2018-07-26T21:50:02.733Z,52.10
2018-07-26T21:52:31.953Z,51.60
2018-07-26T21:55:00.949Z,52.10
2018-07-26T21:57:29.939Z,52.60
2018-07-26T21:59:58.979Z,52.80
2018-07-26T22:02:28.077Z,52.90
2018-07-26T22:04:57.093Z,52.80
2018-07-26T22:07:26.104Z,54.40
2018-07-26T22:09:55.113Z,53.20
2018-07-26T22:12:24.185Z,53.10
2018-07-26T22:14:53.181Z,53.60
2018-07-26T22:17:22.221Z,53.40
2018-07-26T22:19:51.217Z,53.40
2018-07-26T22:22:20.193Z,52.50
2018-07-26T22:24:49.201Z,52.50
2018-07-26T22:27:18.201Z,52.30
2018-07-26T22:29:47.181Z,52.10
2018-07-26T22:32:16.197Z,53.40
2018-07-26T22:34:45.191Z,53.90
2018-07-26T22:37:14.169Z,54.00
2018-07-26T22:39:43.121Z,54.20
2018-07-26T22:42:12.149Z,54.10
2018-07-26T22:44:41.162Z,53.90
2018-07-26T22:47:10.169Z,53.70
2018-07-26T22:52:07.765Z,54.30
2018-07-26T22:54:36.773Z,53.80
2018-07-26T22:57:05.810Z,54.20
2018-07-26T22:59:34.807Z,54.00
2018-07-26T23:02:03.820Z,54.10
2018-07-26T23:04:32.844Z,54.70
2018-07-26T23:07:01.841Z,54.60
2018-07-26T23:09:30.794Z,55.60
2018-07-26T23:11:59.934Z,55.10
2018-07-26T23:14:29.022Z,55.90
2018-07-26T23:16:57.992Z,55.20
2018-07-26T23:19:26.950Z,55.30
2018-07-26T23:21:56.054Z,55.70
2018-07-26T23:24:25.052Z,55.30
2018-07-26T23:26:54.049Z,54.90
2018-07-26T23:29:23.024Z,55.80
2018-07-26T23:31:52.018Z,55.60
2018-07-26T23:34:21.022Z,55.30
2018-07-26T23:36:50.064Z,56.30
2018-07-26T23:39:19.014Z,56.60
2018-07-26T23:41:47.991Z,57.40
2018-07-26T23:44:17.010Z,56.90
2018-07-26T23:46:45.953Z,56.80
2018-07-26T23:49:14.917Z,57.50
2018-07-26T23:51:43.927Z,57.30
2018-07-26T23:54:13.017Z,56.90
2018-07-26T23:56:42.089Z,57.30
2018-07-26T23:59:11.083Z,57.30
